Time;durP1;ratioP1;P1;durP2;ratioP2;P2;SDS_P1;SDS_P2;PMS_P1;PMS_P2;Temp;Humidity;BMP_temperature;BMP_pressure;BME280_temperature;BME280_humidity;BME280_pressure;Samples;Min_cycle;Max_cycle;Signal;HPM_P1;HPM_P2
2024/01/12 00:00:36;;;;;;;;;29.00;28.50;;;;;2.52;60.28;102917.03;4978629;28;45269;-62
2024/01/12 00:03:04;;;;;;;;;31.75;30.25;;;;;2.52;61.05;102927.38;4977402;28;45644;-62
2024/01/12 00:05:29;;;;;;;;;30.25;26.00;;;;;2.46;62.34;102920.06;4977077;28;45640;-61
2024/01/12 00:07:55;;;;;;;;;30.75;28.25;;;;;2.47;62.05;102923.59;4978660;28;45418;-63
2024/01/12 00:10:20;;;;;;;;;27.25;22.75;;;;;2.38;62.82;102910.88;4993475;28;45554;-59
2024/01/12 00:12:46;;;;;;;;;28.25;24.25;;;;;2.53;62.35;102921.41;4978467;28;45638;-60
2024/01/12 00:15:11;;;;;;;;;23.75;22.50;;;;;2.59;61.89;102918.34;4977696;28;45500;-61
2024/01/12 00:17:37;;;;;;;;;28.25;22.00;;;;;2.60;61.65;102918.44;4978645;28;45623;-62
2024/01/12 00:20:06;;;;;;;;;24.25;21.50;;;;;2.71;61.86;102916.63;4977221;28;45509;-62
2024/01/12 00:22:31;;;;;;;;;31.25;24.00;;;;;2.79;61.53;102930.06;4978572;28;45328;-61
2024/01/12 00:24:57;;;;;;;;;26.75;21.25;;;;;2.84;61.38;102932.19;4979167;28;45500;-61
2024/01/12 00:27:22;;;;;;;;;27.00;25.00;;;;;2.87;61.67;102934.06;4992912;28;45795;-61
2024/01/12 00:29:48;;;;;;;;;25.25;22.25;;;;;2.95;61.60;102935.50;4978036;28;45447;-63
2024/01/12 00:32:13;;;;;;;;;25.75;20.50;;;;;2.95;61.73;102932.94;4978214;28;45521;-61
2024/01/12 00:34:39;;;;;;;;;26.50;23.50;;;;;2.84;63.17;102916.66;4968690;28;45519;-60
2024/01/12 00:37:07;;;;;;;;;30.25;23.00;;;;;2.93;63.13;102927.63;4975609;28;47021;-63
2024/01/12 00:39:35;;;;;;;;;30.00;26.50;;;;;2.91;62.73;102917.97;4975788;28;45340;-59
2024/01/12 00:42:01;;;;;;;;;26.00;25.00;;;;;2.89;63.37;102923.03;4978072;28;45459;-63
2024/01/12 00:44:26;;;;;;;;;27.50;23.50;;;;;2.90;63.78;102929.13;4978604;28;45648;-60
2024/01/12 00:46:52;;;;;;;;;31.25;22.25;;;;;2.96;63.74;102914.88;4977492;28;46766;-63
2024/01/12 00:49:18;;;;;;;;;26.50;19.00;;;;;2.90;64.23;102916.19;4975443;28;45581;-63
2024/01/12 00:51:44;;;;;;;;;25.50;21.00;;;;;2.99;63.65;102929.75;4976122;28;45384;-64
2024/01/12 00:54:10;;;;;;;;;23.00;20.75;;;;;2.92;63.61;102901.66;4976444;28;45542;-61
2024/01/12 00:56:36;;;;;;;;;24.75;21.50;;;;;3.07;64.18;102915.63;4978060;28;45433;-60
2024/01/12 00:59:02;;;;;;;;;28.50;24.00;;;;;3.12;63.89;102932.38;4977681;28;45454;-62
2024/01/12 01:01:28;;;;;;;;;23.00;18.75;;;;;3.13;63.34;102909.94;4976092;28;45538;-66
2024/01/12 01:03:54;;;;;;;;;30.25;22.75;;;;;3.20;64.02;102906.97;4975765;28;45415;-60
2024/01/12 01:06:20;;;;;;;;;28.00;22.75;;;;;3.16;63.92;102898.13;4975747;28;46931;-62
2024/01/12 01:08:47;;;;;;;;;28.25;22.75;;;;;3.22;63.58;102897.63;4974630;28;46663;-65
2024/01/12 01:11:14;;;;;;;;;27.25;21.00;;;;;3.16;63.65;102894.66;4977160;28;45775;-66
2024/01/12 01:13:39;;;;;;;;;27.00;21.50;;;;;3.23;63.17;102899.44;4975606;28;45697;-62
2024/01/12 01:16:05;;;;;;;;;29.25;23.75;;;;;3.28;62.69;102891.97;4976472;28;45467;-63
2024/01/12 01:18:32;;;;;;;;;28.25;21.25;;;;;3.31;63.28;102897.34;4975258;28;45641;-62
2024/01/12 01:20:57;;;;;;;;;23.75;21.75;;;;;3.39;62.53;102904.84;4964090;28;46821;-64
2024/01/12 01:23:23;;;;;;;;;33.25;27.00;;;;;3.38;63.37;102908.22;4974627;28;45419;-61
2024/01/12 01:25:49;;;;;;;;;23.00;22.00;;;;;3.42;63.23;102892.84;4976870;28;46035;-65
2024/01/12 01:28:15;;;;;;;;;28.50;21.25;;;;;3.38;62.24;102887.47;4977244;28;45390;-66
2024/01/12 01:30:40;;;;;;;;;25.00;20.75;;;;;3.27;62.59;102854.78;4976402;28;45502;-70
2024/01/12 01:33:06;;;;;;;;;25.00;21.50;;;;;3.41;63.01;102879.00;4977626;28;45328;-68
2024/01/12 01:35:32;;;;;;;;;28.00;25.50;;;;;3.45;62.26;102891.38;4976481;28;46795;-68
2024/01/12 01:37:58;;;;;;;;;37.00;29.25;;;;;3.46;62.76;102887.09;4976883;28;45364;-60
2024/01/12 01:40:23;;;;;;;;;27.75;26.00;;;;;3.44;63.45;102880.91;4976292;28;45528;-61
2024/01/12 01:42:49;;;;;;;;;33.00;25.75;;;;;3.39;62.96;102868.56;4974522;28;45539;-61
2024/01/12 01:45:15;;;;;;;;;32.25;24.25;;;;;3.49;62.97;102887.28;4977585;28;45486;-61
2024/01/12 01:47:42;;;;;;;;;27.50;24.25;;;;;3.50;62.71;102892.56;4978331;28;45514;-64
2024/01/12 01:50:10;;;;;;;;;24.25;21.75;;;;;3.52;62.83;102884.91;4977035;28;45427;-60
2024/01/12 01:52:37;;;;;;;;;28.25;23.75;;;;;3.53;63.51;102897.06;4977113;28;45323;-60
2024/01/12 01:55:03;;;;;;;;;25.75;23.50;;;;;3.54;63.23;102891.97;4977141;28;46070;-60
2024/01/12 01:57:30;;;;;;;;;29.50;24.25;;;;;3.55;63.19;102901.53;4978026;28;45503;-61
2024/01/12 01:59:56;;;;;;;;;25.00;22.50;;;;;3.55;63.01;102886.00;4978089;28;45464;-64
2024/01/12 02:02:23;;;;;;;;;23.50;22.75;;;;;3.49;62.76;102875.25;4977015;28;45395;-61
2024/01/12 02:04:52;;;;;;;;;29.00;26.00;;;;;3.58;63.10;102885.28;4976521;28;45487;-66
2024/01/12 02:07:17;;;;;;;;;24.50;21.00;;;;;3.63;63.36;102888.19;4976276;28;45470;-62
2024/01/12 02:09:44;;;;;;;;;27.75;24.50;;;;;3.66;62.82;102891.00;4976712;28;45450;-62
2024/01/12 02:12:09;;;;;;;;;27.00;22.50;;;;;3.56;63.46;102860.97;4991506;28;45639;-63
2024/01/12 02:14:35;;;;;;;;;34.00;28.00;;;;;3.67;63.01;102883.28;4975926;28;46179;-61
2024/01/12 02:17:00;;;;;;;;;28.75;26.25;;;;;3.69;63.61;102884.28;4976348;28;45379;-63
2024/01/12 02:19:26;;;;;;;;;37.25;27.00;;;;;3.68;63.29;102881.59;4976727;28;45550;-61
2024/01/12 02:21:52;;;;;;;;;34.75;29.00;;;;;3.72;63.77;102883.59;4976743;28;45260;-60
2024/01/12 02:24:17;;;;;;;;;31.50;29.00;;;;;3.68;63.72;102869.56;4976561;28;45396;-63
2024/01/12 02:26:43;;;;;;;;;31.50;26.25;;;;;3.70;63.39;102865.38;4976604;28;45378;-62
2024/01/12 02:29:09;;;;;;;;;31.50;27.75;;;;;3.74;63.20;102874.22;4976728;28;45228;-63
2024/01/12 02:31:35;;;;;;;;;33.75;29.75;;;;;3.69;63.90;102866.16;4975373;28;45499;-62
2024/01/12 02:34:01;;;;;;;;;33.25;29.75;;;;;3.66;63.71;102865.06;4975501;28;47033;-61
2024/01/12 02:36:35;;;;;;;;;28.25;23.00;;;;;3.72;64.19;102868.94;4977036;28;45845;-62
2024/01/12 02:39:21;;;;;;;;;29.25;27.25;;;;;3.74;63.55;102866.44;4978866;28;45185;-62
2024/01/12 02:41:46;;;;;;;;;34.50;25.50;;;;;3.59;63.79;102843.06;4980291;28;45484;-63
2024/01/12 02:44:12;;;;;;;;;33.50;23.50;;;;;3.52;64.40;102833.09;4980290;28;46311;-62
2024/01/12 02:46:40;;;;;;;;;30.50;26.75;;;;;3.63;64.14;102855.41;4979872;28;45470;-63
2024/01/12 02:49:05;;;;;;;;;33.75;29.50;;;;;3.68;63.92;102853.09;4978277;28;46036;-63
2024/01/12 02:51:31;;;;;;;;;32.00;24.50;;;;;3.72;65.06;102860.28;4978616;28;45500;-62
2024/01/12 02:53:57;;;;;;;;;32.50;28.00;;;;;3.70;64.44;102867.03;4979360;28;45503;-63
2024/01/12 02:56:22;;;;;;;;;33.00;26.25;;;;;3.63;64.74;102852.81;4980982;28;45518;-62
2024/01/12 02:58:48;;;;;;;;;31.75;27.00;;;;;3.66;65.04;102858.19;4979392;28;45594;-64
2024/01/12 03:01:19;;;;;;;;;33.25;26.00;;;;;3.70;64.35;102861.88;4979900;28;45442;-61
2024/01/12 03:03:45;;;;;;;;;33.50;30.50;;;;;3.74;64.30;102861.25;4979804;28;45499;-62
2024/01/12 03:06:11;;;;;;;;;40.50;32.00;;;;;3.63;65.07;102842.47;4979849;28;45826;-63
2024/01/12 03:08:36;;;;;;;;;36.75;30.00;;;;;3.71;64.77;102861.97;4979718;28;45340;-63
2024/01/12 03:11:03;;;;;;;;;38.25;32.25;;;;;3.69;64.74;102862.66;4979814;28;45374;-62
2024/01/12 03:13:29;;;;;;;;;35.25;30.50;;;;;3.69;65.49;102858.38;4979557;28;46278;-63
2024/01/12 03:15:54;;;;;;;;;44.50;30.25;;;;;3.60;65.12;102840.53;4980282;28;45429;-61
2024/01/12 03:18:20;;;;;;;;;42.00;29.50;;;;;3.67;65.51;102841.81;4979469;28;45244;-61
2024/01/12 03:20:45;;;;;;;;;37.00;31.00;;;;;3.74;65.38;102849.19;4979491;28;45424;-62
2024/01/12 03:23:11;;;;;;;;;43.75;33.25;;;;;3.77;65.62;102859.78;4978902;28;45451;-65
2024/01/12 03:25:36;;;;;;;;;42.25;33.25;;;;;3.55;65.12;102815.13;4978014;28;45392;-63
2024/01/12 03:28:02;;;;;;;;;36.75;31.50;;;;;3.77;65.27;102854.59;4979367;28;45434;-64
2024/01/12 03:30:28;;;;;;;;;39.25;31.50;;;;;3.78;65.47;102858.97;4979249;28;45548;-65
2024/01/12 03:32:53;;;;;;;;;41.75;34.00;;;;;3.77;65.47;102857.19;4978580;28;47790;-62
2024/01/12 03:35:19;;;;;;;;;42.50;30.00;;;;;3.76;65.27;102857.97;4978524;28;45375;-63
2024/01/12 03:37:45;;;;;;;;;38.75;32.50;;;;;3.74;66.06;102846.59;4978814;28;45422;-64
2024/01/12 03:40:11;;;;;;;;;46.75;36.00;;;;;3.76;66.04;102859.66;4980758;28;46191;-64
2024/01/12 03:42:37;;;;;;;;;46.50;37.00;;;;;3.75;66.04;102858.78;4977371;28;48037;-63
2024/01/12 03:45:04;;;;;;;;;47.00;32.75;;;;;3.77;65.56;102856.28;4979057;28;45528;-63
2024/01/12 03:47:29;;;;;;;;;47.75;37.75;;;;;3.64;66.59;102828.69;4978475;28;45503;-63
2024/01/12 03:49:55;;;;;;;;;50.25;34.50;;;;;3.70;66.67;102842.06;4978093;28;45264;-63
2024/01/12 03:52:20;;;;;;;;;47.50;36.50;;;;;3.76;66.69;102850.19;4980166;28;45537;-63
2024/01/12 03:54:46;;;;;;;;;49.25;36.50;;;;;3.72;66.51;102840.41;4978410;28;45488;-66
2024/01/12 03:57:12;;;;;;;;;48.50;37.75;;;;;3.71;66.60;102836.06;4978527;28;45312;-61
2024/01/12 03:59:38;;;;;;;;;45.25;36.25;;;;;3.64;66.44;102823.50;4978882;28;45401;-64
2024/01/12 04:02:03;;;;;;;;;48.50;36.25;;;;;3.78;66.08;102845.13;4978652;28;45529;-66
2024/01/12 04:04:29;;;;;;;;;45.25;35.50;;;;;3.76;67.15;102838.94;4978427;28;45576;-66
2024/01/12 04:06:54;;;;;;;;;51.25;36.50;;;;;3.73;66.92;102839.66;4978344;28;45391;-63
2024/01/12 04:09:20;;;;;;;;;49.25;37.00;;;;;3.77;65.94;102836.47;4977697;28;45431;-65
2024/01/12 04:11:45;;;;;;;;;45.75;36.50;;;;;3.79;66.28;102831.34;4976962;28;47480;-69
2024/01/12 04:14:11;;;;;;;;;44.00;34.50;;;;;3.81;66.64;102841.00;4977115;28;45491;-63
2024/01/12 04:16:36;;;;;;;;;42.75;33.50;;;;;3.84;66.64;102842.91;4978498;28;45449;-63
2024/01/12 04:19:02;;;;;;;;;51.50;36.00;;;;;3.78;67.07;102827.88;4977507;28;45637;-67
2024/01/12 04:21:28;;;;;;;;;48.00;37.25;;;;;3.85;66.99;102838.63;4977124;28;47184;-65
2024/01/12 04:23:56;;;;;;;;;47.50;36.50;;;;;3.85;66.58;102828.25;4978501;28;45336;-62
2024/01/12 04:26:22;;;;;;;;;53.75;39.25;;;;;3.87;66.88;102834.41;4979227;28;45447;-62
2024/01/12 04:28:48;;;;;;;;;51.75;37.25;;;;;3.81;67.39;102825.47;4977584;28;45428;-62
2024/01/12 04:31:13;;;;;;;;;49.25;37.00;;;;;3.81;66.95;102833.22;4978341;28;46267;-62
2024/01/12 04:33:40;;;;;;;;;47.50;37.00;;;;;3.88;66.51;102837.13;4977086;28;45560;-62
2024/01/12 04:36:06;;;;;;;;;50.00;38.25;;;;;3.88;67.23;102839.69;4978079;28;45379;-62
2024/01/12 04:38:32;;;;;;;;;49.25;37.00;;;;;3.87;67.18;102831.81;4978792;28;45410;-60
2024/01/12 04:40:58;;;;;;;;;58.50;38.50;;;;;3.88;66.64;102841.41;4977475;28;46255;-64
2024/01/12 04:43:23;;;;;;;;;49.50;39.50;;;;;3.76;67.08;102819.09;4978050;28;45328;-64
2024/01/12 04:45:49;;;;;;;;;48.00;37.00;;;;;3.89;67.09;102848.38;4976939;28;45352;-63
2024/01/12 04:48:15;;;;;;;;;47.75;37.50;;;;;3.86;66.99;102840.41;4977987;28;45320;-63
2024/01/12 04:50:40;;;;;;;;;43.50;34.00;;;;;3.85;67.45;102838.63;4977741;28;46430;-62
2024/01/12 04:53:06;;;;;;;;;51.25;37.75;;;;;3.86;66.78;102838.72;4978087;28;45564;-62
2024/01/12 04:55:31;;;;;;;;;52.25;39.50;;;;;3.93;67.83;102842.59;4979793;28;45308;-64
2024/01/12 04:57:57;;;;;;;;;52.75;39.00;;;;;3.82;67.06;102822.09;4978775;28;45547;-65
2024/01/12 05:00:22;;;;;;;;;54.50;40.50;;;;;3.94;66.79;102834.00;4979092;28;46448;-67
2024/01/12 05:02:48;;;;;;;;;54.50;40.00;;;;;3.95;67.04;102841.00;4978122;28;45356;-66
2024/01/12 05:05:14;;;;;;;;;53.00;39.25;;;;;3.96;67.36;102835.00;4976813;28;45688;-65
2024/01/12 05:07:40;;;;;;;;;44.75;34.00;;;;;3.93;67.22;102825.31;4976767;28;45498;-65
2024/01/12 05:10:06;;;;;;;;;49.25;36.25;;;;;3.90;67.57;102819.06;4977574;28;45364;-63
2024/01/12 05:12:34;;;;;;;;;46.75;35.75;;;;;3.98;67.27;102833.41;4977617;28;45376;-69
2024/01/12 05:15:01;;;;;;;;;47.25;38.75;;;;;3.98;67.40;102821.31;4977450;28;45277;-69
2024/01/12 05:17:27;;;;;;;;;52.75;39.75;;;;;3.94;66.95;102808.06;4977641;28;45367;-64
2024/01/12 05:19:53;;;;;;;;;49.25;38.00;;;;;4.04;67.74;102826.00;4977457;28;46194;-64
2024/01/12 05:22:19;;;;;;;;;48.75;34.25;;;;;4.06;67.32;102832.19;4977115;28;45511;-62
2024/01/12 05:24:44;;;;;;;;;48.75;35.75;;;;;3.97;67.60;102816.94;4977047;28;45549;-62
2024/01/12 05:27:11;;;;;;;;;52.00;38.00;;;;;3.98;67.24;102810.94;4977093;28;46112;-61
2024/01/12 05:29:37;;;;;;;;;49.00;36.75;;;;;3.98;66.73;102810.06;4976683;28;47157;-63
2024/01/12 05:32:03;;;;;;;;;41.00;36.00;;;;;4.07;67.19;102821.00;4977528;28;45529;-62
2024/01/12 05:34:29;;;;;;;;;38.00;30.75;;;;;4.09;67.54;102810.75;4975819;28;45508;-63
2024/01/12 05:36:54;;;;;;;;;46.75;33.50;;;;;4.10;67.08;102813.41;4977653;28;45224;-62
2024/01/12 05:39:20;;;;;;;;;44.75;34.50;;;;;4.03;66.64;102804.38;4978310;28;45844;-63
2024/01/12 05:41:45;;;;;;;;;47.25;35.75;;;;;4.04;66.63;102800.09;4977137;28;45666;-64
2024/01/12 05:44:11;;;;;;;;;47.00;35.50;;;;;4.03;66.92;102795.69;4977198;28;45453;-63
2024/01/12 05:46:37;;;;;;;;;43.25;31.75;;;;;4.06;66.70;102793.28;4976820;28;45619;-62
2024/01/12 05:49:04;;;;;;;;;35.25;28.50;;;;;4.13;66.64;102811.03;4977080;28;45748;-61
2024/01/12 05:51:30;;;;;;;;;37.75;30.75;;;;;4.13;66.99;102805.84;4976525;28;45493;-64
2024/01/12 05:53:56;;;;;;;;;48.00;38.00;;;;;4.21;66.64;102809.78;4978760;28;45313;-61
2024/01/12 05:56:23;;;;;;;;;53.75;40.00;;;;;4.22;66.64;102827.16;4977096;28;45486;-62
2024/01/12 05:58:50;;;;;;;;;47.00;36.75;;;;;4.18;66.95;102816.50;4977931;28;46501;-62
2024/01/12 06:01:16;;;;;;;;;46.50;34.00;;;;;4.18;66.57;102814.78;4977013;28;45297;-65
2024/01/12 06:03:41;;;;;;;;;40.25;33.50;;;;;4.21;66.65;102814.09;4976947;28;45500;-63
2024/01/12 06:06:07;;;;;;;;;43.00;32.25;;;;;4.25;66.37;102831.63;4977062;28;45634;-62
2024/01/12 06:08:32;;;;;;;;;42.50;30.25;;;;;4.25;66.68;102827.34;4975167;28;46749;-64
2024/01/12 06:10:58;;;;;;;;;41.00;32.50;;;;;4.26;66.57;102823.03;4977083;28;45450;-62
2024/01/12 06:13:24;;;;;;;;;46.25;33.00;;;;;4.23;66.33;102823.75;4978642;28;45443;-64
2024/01/12 06:15:50;;;;;;;;;46.50;35.25;;;;;4.22;66.61;102827.16;4980904;28;46003;-62
2024/01/12 06:18:15;;;;;;;;;45.25;31.75;;;;;4.29;66.74;102835.28;4979970;28;46217;-64
2024/01/12 06:20:41;;;;;;;;;40.25;32.00;;;;;4.24;66.82;102819.44;4980248;28;45547;-64
2024/01/12 06:23:06;;;;;;;;;42.50;31.25;;;;;4.24;66.55;102824.63;4980323;28;45499;-63
2024/01/12 06:25:36;;;;;;;;;47.00;35.00;;;;;4.34;66.25;102836.47;4980220;28;45507;-65
2024/01/12 06:28:02;;;;;;;;;43.75;33.50;;;;;4.30;66.52;102837.09;4978631;28;47294;-66
2024/01/12 06:30:28;;;;;;;;;43.00;36.50;;;;;4.31;66.91;102838.88;4978736;28;45721;-63
2024/01/12 06:32:53;;;;;;;;;41.75;32.25;;;;;4.29;66.89;102832.69;4978936;28;45417;-63
2024/01/12 06:35:19;;;;;;;;;41.25;33.00;;;;;4.30;66.61;102835.41;4980104;28;45515;-63
2024/01/12 06:37:45;;;;;;;;;42.50;33.75;;;;;4.30;66.75;102830.22;4979691;28;46608;-61
2024/01/12 06:40:11;;;;;;;;;47.00;36.50;;;;;4.32;66.73;102828.59;4979570;28;45981;-62
2024/01/12 06:42:37;;;;;;;;;44.25;32.25;;;;;4.37;66.48;102844.47;4979930;28;45417;-62
2024/01/12 06:45:06;;;;;;;;;37.00;33.00;;;;;4.36;67.13;102835.75;4980217;28;45430;-64
2024/01/12 06:47:33;;;;;;;;;49.00;33.50;;;;;4.38;66.83;102843.66;4980066;28;46122;-63
2024/01/12 06:49:59;;;;;;;;;43.00;32.75;;;;;4.31;66.69;102825.91;4981049;28;45448;-62
2024/01/12 06:52:25;;;;;;;;;38.25;31.50;;;;;4.34;66.32;102829.59;4979500;28;45294;-65
2024/01/12 06:54:50;;;;;;;;;42.50;32.50;;;;;4.40;66.88;102831.66;4978630;28;45371;-63
2024/01/12 06:57:16;;;;;;;;;40.75;33.25;;;;;4.41;66.91;102834.38;4979375;28;46363;-64
2024/01/12 06:59:41;;;;;;;;;39.00;32.25;;;;;4.42;66.41;102837.84;4978893;28;45483;-66
2024/01/12 07:02:07;;;;;;;;;44.50;34.25;;;;;4.06;66.24;102772.56;4979210;28;45647;-62
2024/01/12 07:04:33;;;;;;;;;44.00;32.50;;;;;4.39;66.08;102833.38;4979520;28;45436;-63
2024/01/12 07:06:58;;;;;;;;;46.50;34.50;;;;;4.45;66.98;102832.84;4979638;28;46069;-61
2024/01/12 07:09:24;;;;;;;;;48.00;35.25;;;;;4.39;66.62;102832.44;4980339;28;45358;-63
2024/01/12 07:11:50;;;;;;;;;45.00;33.50;;;;;4.38;66.99;102841.03;4981139;28;45361;-63
2024/01/12 07:14:16;;;;;;;;;38.50;32.50;;;;;4.42;67.20;102840.44;4979915;28;45408;-63
2024/01/12 07:16:42;;;;;;;;;45.25;34.25;;;;;4.36;66.33;102832.28;4979123;28;45982;-64
2024/01/12 07:19:08;;;;;;;;;44.50;33.00;;;;;4.35;66.35;102821.00;4979105;28;45522;-62
2024/01/12 07:21:34;;;;;;;;;46.00;36.00;;;;;4.49;66.27;102842.59;4979431;28;45465;-63
2024/01/12 07:24:01;;;;;;;;;47.00;36.50;;;;;4.44;66.70;102839.72;4979522;28;45385;-64
2024/01/12 07:26:26;;;;;;;;;40.00;32.00;;;;;4.36;66.82;102830.56;4978920;28;45564;-65
2024/01/12 07:28:52;;;;;;;;;42.25;32.00;;;;;4.46;66.00;102848.50;4978678;28;45569;-62
2024/01/12 07:31:18;;;;;;;;;41.00;32.00;;;;;4.46;66.08;102851.09;4978743;28;46283;-61
2024/01/12 07:33:50;;;;;;;;;42.25;30.75;;;;;4.48;66.60;102845.97;4979296;28;45637;-64
2024/01/12 07:36:19;;;;;;;;;40.00;33.00;;;;;4.49;66.05;102847.78;4979197;28;46292;-63
2024/01/12 07:38:45;;;;;;;;;45.25;33.50;;;;;4.52;65.77;102850.56;4978672;28;45450;-63
2024/01/12 07:41:11;;;;;;;;;32.50;30.00;;;;;4.53;66.00;102856.66;4978914;28;45467;-62
2024/01/12 07:43:36;;;;;;;;;41.75;34.00;;;;;4.54;65.99;102850.66;4978949;28;45346;-61
2024/01/12 07:46:02;;;;;;;;;36.25;29.75;;;;;4.53;65.83;102848.84;4980067;28;46683;-62
2024/01/12 07:48:27;;;;;;;;;41.25;33.00;;;;;4.56;66.18;102857.75;4978669;28;45290;-63
2024/01/12 07:50:53;;;;;;;;;41.50;34.50;;;;;4.55;66.18;102855.03;4979946;28;45414;-62
2024/01/12 07:53:18;;;;;;;;;47.75;36.00;;;;;4.48;66.57;102843.38;4980536;28;45422;-64
2024/01/12 07:55:44;;;;;;;;;52.50;36.75;;;;;4.51;65.88;102853.06;4978753;28;46125;-63
2024/01/12 07:58:09;;;;;;;;;46.25;33.00;;;;;4.51;66.16;102861.75;4978377;28;45523;-61
2024/01/12 08:00:35;;;;;;;;;44.25;33.00;;;;;4.51;66.15;102861.75;4977338;28;45341;-63
2024/01/12 08:03:02;;;;;;;;;34.75;32.25;;;;;4.52;65.76;102853.16;4977023;28;45462;-62
2024/01/12 08:05:28;;;;;;;;;50.50;35.50;;;;;4.51;65.75;102846.19;4976832;28;46844;-61
2024/01/12 08:07:55;;;;;;;;;45.75;35.50;;;;;4.52;65.75;102847.97;4978501;28;45355;-62
2024/01/12 08:10:20;;;;;;;;;54.00;41.25;;;;;4.49;66.29;102846.91;4978450;28;45280;-61
2024/01/12 08:12:47;;;;;;;;;54.75;40.75;;;;;4.51;66.06;102855.66;4978207;28;45607;-62
2024/01/12 08:15:13;;;;;;;;;54.75;38.00;;;;;4.40;66.80;102842.94;4977784;28;46121;-63
2024/01/12 08:17:40;;;;;;;;;51.50;39.75;;;;;4.39;66.36;102851.53;4978157;28;45471;-65
2024/01/12 08:20:06;;;;;;;;;58.50;43.00;;;;;4.41;66.33;102854.19;4978574;28;45455;-63
2024/01/12 08:22:32;;;;;;;;;49.25;39.00;;;;;4.36;66.97;102835.75;4978697;28;45489;-63
2024/01/12 08:24:58;;;;;;;;;53.00;42.00;;;;;4.37;66.60;102847.94;4977644;28;46563;-61
2024/01/12 08:27:24;;;;;;;;;48.75;36.25;;;;;4.30;66.71;102845.78;4977787;28;45580;-62
2024/01/12 08:29:49;;;;;;;;;48.25;37.75;;;;;4.35;66.41;102853.84;4976823;28;45630;-63
2024/01/12 08:32:22;;;;;;;;;54.75;41.50;;;;;4.35;65.64;102852.13;4976877;28;45356;-61
2024/01/12 08:34:51;;;;;;;;;59.25;41.00;;;;;3.87;66.96;102790.34;4977661;28;45552;-63
2024/01/12 08:37:17;;;;;;;;;51.75;39.00;;;;;4.12;66.48;102836.84;4976474;28;45514;-63
2024/01/12 08:39:43;;;;;;;;;52.00;41.00;;;;;4.17;67.03;102849.28;4977505;28;45377;-61
2024/01/12 08:42:08;;;;;;;;;55.50;39.75;;;;;4.13;66.73;102838.63;4978343;28;45975;-68
2024/01/12 08:44:34;;;;;;;;;56.75;39.00;;;;;4.17;67.11;102845.81;4976721;28;46462;-63
2024/01/12 08:47:00;;;;;;;;;46.50;34.50;;;;;4.13;66.28;102836.03;4976321;28;45460;-65
2024/01/12 08:49:25;;;;;;;;;47.25;36.00;;;;;4.23;66.39;102849.69;4978014;28;45341;-63
2024/01/12 08:51:53;;;;;;;;;53.00;38.25;;;;;4.29;66.12;102850.84;4978054;28;45455;-63
2024/01/12 08:54:19;;;;;;;;;51.00;39.00;;;;;4.27;66.15;102847.28;4978745;28;46320;-63
2024/01/12 08:56:45;;;;;;;;;51.25;40.25;;;;;4.27;66.16;102839.50;4976082;28;45504;-62
2024/01/12 08:59:10;;;;;;;;;54.25;41.50;;;;;4.29;66.18;102853.44;4978027;28;45293;-64
2024/01/12 09:01:37;;;;;;;;;45.00;37.25;;;;;4.27;65.92;102845.56;4979067;28;45494;-63
2024/01/12 09:04:02;;;;;;;;;51.00;38.75;;;;;4.35;66.26;102865.09;4978534;28;46103;-63
2024/01/12 09:06:29;;;;;;;;;54.50;41.00;;;;;4.31;66.23;102860.53;4967040;28;45581;-61
2024/01/12 09:08:55;;;;;;;;;56.00;40.00;;;;;4.16;66.10;102850.09;4979018;28;45442;-64
2024/01/12 09:11:21;;;;;;;;;51.75;39.00;;;;;4.22;66.23;102870.34;4979053;28;45438;-63
2024/01/12 09:13:48;;;;;;;;;51.75;39.25;;;;;4.13;66.51;102865.50;4977682;28;48026;-62
2024/01/12 09:16:15;;;;;;;;;59.25;44.50;;;;;4.20;66.74;102875.44;4978668;28;45511;-61
2024/01/12 09:18:43;;;;;;;;;53.00;42.00;;;;;4.02;66.90;102857.03;4978769;28;45521;-62
2024/01/12 09:21:09;;;;;;;;;52.50;42.00;;;;;4.16;66.44;102875.16;4979033;28;45447;-62
2024/01/12 09:23:42;;;;;;;;;56.50;42.25;;;;;4.14;66.35;102871.56;4978663;28;45601;-62
2024/01/12 09:26:09;;;;;;;;;57.25;41.25;;;;;4.13;66.23;102878.47;4977184;28;45429;-63
2024/01/12 09:28:36;;;;;;;;;52.50;40.00;;;;;4.03;66.71;102878.66;4975928;28;45506;-63
2024/01/12 09:31:01;;;;;;;;;49.50;40.00;;;;;3.96;66.51;102874.81;4975294;28;45593;-62
2024/01/12 09:33:27;;;;;;;;;54.00;39.50;;;;;3.93;66.03;102873.69;4975484;28;46785;-65
2024/01/12 09:35:53;;;;;;;;;49.75;39.50;;;;;3.94;66.56;102883.25;4976671;28;45429;-62
2024/01/12 09:38:19;;;;;;;;;50.00;38.75;;;;;3.98;66.41;102893.03;4977206;28;45562;-64
2024/01/12 09:40:45;;;;;;;;;60.75;45.25;;;;;3.93;66.67;102872.00;4976979;28;45268;-65
2024/01/12 09:43:14;;;;;;;;;48.75;39.00;;;;;4.05;66.13;102895.22;4977220;28;45225;-65
2024/01/12 09:45:45;;;;;;;;;56.00;42.25;;;;;4.02;64.99;102890.72;4976733;28;45493;-64
2024/01/12 09:48:13;;;;;;;;;55.50;44.00;;;;;4.00;65.27;102899.22;4977229;28;45391;-61
2024/01/12 09:50:42;;;;;;;;;57.00;44.25;;;;;3.88;65.80;102895.84;4977323;28;45446;-65
2024/01/12 09:53:08;;;;;;;;;51.75;41.75;;;;;3.81;66.40;102898.03;4975926;28;45444;-61
2024/01/12 09:55:33;;;;;;;;;62.00;46.00;;;;;3.72;65.75;102889.66;4976693;28;45283;-62
2024/01/12 09:58:01;;;;;;;;;54.75;42.50;;;;;3.71;66.55;102908.63;4976766;28;45455;-61
2024/01/12 10:00:31;;;;;;;;;57.75;41.50;;;;;3.52;66.56;102880.63;4975792;28;45456;-65
2024/01/12 10:02:58;;;;;;;;;57.75;44.00;;;;;3.74;66.67;102915.69;4976548;28;46099;-63
2024/01/12 10:05:25;;;;;;;;;64.25;44.75;;;;;3.64;67.02;102898.66;4976060;28;45372;-62
2024/01/12 10:07:50;;;;;;;;;59.25;46.00;;;;;3.79;67.00;102917.78;4976747;28;45431;-61
2024/01/12 10:10:16;;;;;;;;;63.67;47.33;;;;;3.89;66.65;102924.47;4976597;28;45379;-66
2024/01/12 10:12:41;;;;;;;;;57.75;43.75;;;;;3.81;65.92;102910.09;4976692;28;46200;-63
2024/01/12 10:15:09;;;;;;;;;57.33;44.00;;;;;3.83;65.65;102922.38;4976514;28;45425;-62
2024/01/12 10:17:35;;;;;;;;;61.33;45.33;;;;;3.85;65.69;102927.66;4976310;28;45475;-61
2024/01/12 10:20:01;;;;;;;;;52.50;42.75;;;;;3.85;65.80;102921.59;4977152;28;45572;-62
2024/01/12 10:22:27;;;;;;;;;53.00;40.75;;;;;3.97;65.95;102933.63;4976768;28;45513;-63
2024/01/12 10:25:00;;;;;;;;;55.75;39.50;;;;;3.78;64.93;102882.28;4977939;28;45323;-60
2024/01/12 10:27:29;;;;;;;;;52.00;39.75;;;;;4.12;65.29;102936.28;4978127;28;45554;-62
2024/01/12 10:29:56;;;;;;;;;52.25;40.50;;;;;4.16;65.15;102935.69;4977189;28;45622;-62
2024/01/12 10:32:22;;;;;;;;;49.00;39.75;;;;;4.12;64.84;102912.06;4974741;28;47438;-61
2024/01/12 10:34:49;;;;;;;;;52.50;39.25;;;;;4.25;64.90;102932.81;4976745;28;45272;-62
2024/01/12 10:37:16;;;;;;;;;55.67;44.33;;;;;4.33;64.26;102926.38;4975234;28;45524;-62
2024/01/12 10:39:50;;;;;;;;;55.50;44.00;;;;;4.34;63.73;102935.06;4977068;28;45521;-63
2024/01/12 10:42:17;;;;;;;;;58.00;45.00;;;;;4.28;63.69;102916.53;4976028;28;46265;-63
2024/01/12 10:44:44;;;;;;;;;58.00;44.00;;;;;4.36;64.08;102934.34;4975104;28;46311;-61
2024/01/12 10:47:16;;;;;;;;;53.25;43.50;;;;;4.37;63.68;102924.88;4976425;28;45463;-60
2024/01/12 10:49:47;;;;;;;;;54.75;40.50;;;;;4.43;63.70;102925.25;4975481;28;45582;-64
2024/01/12 10:52:36;;;;;;;;;49.75;37.00;;;;;4.42;63.46;102913.97;4976181;28;46777;-62
2024/01/12 10:55:07;;;;;;;;;51.25;40.75;;;;;4.52;62.96;102925.81;4975744;28;45633;-60
2024/01/12 10:57:37;;;;;;;;;51.25;40.25;;;;;4.48;62.99;102903.06;4976019;28;45534;-62
2024/01/12 11:00:06;;;;;;;;;50.50;40.50;;;;;4.57;63.00;102914.03;4976704;28;45514;-65
2024/01/12 11:02:32;;;;;;;;;53.75;42.50;;;;;4.61;63.27;102909.94;4979544;28;46726;-62
2024/01/12 11:05:00;;;;;;;;;49.00;39.25;;;;;4.58;63.12;102913.25;4977965;28;45478;-62
2024/01/12 11:07:28;;;;;;;;;52.75;41.75;;;;;4.63;62.98;102917.00;4961667;28;45448;-63
2024/01/12 11:09:55;;;;;;;;;56.50;41.50;;;;;4.65;62.92;102909.28;4978980;28;45506;-62
2024/01/12 11:12:36;;;;;;;;;58.00;44.00;;;;;4.63;62.34;102904.03;4976795;28;45463;-60